CPX286 Details

Departure: Fort Worth Alliance Airport (KAFW)
Arrival: Seattle-Tacoma International Airport (KSEA)
Route: SWABR5 HUDAD PNH ALS JNC TCH TWF BKE PDT CHINS3


Current Weather Information
KAFW 260853Z 36006KT 10SM CLR 10/07 A3030 RMK AO2 SLP255 T01000067 50003
KSEA 260853Z 21012KT 8SM -RA FEW010 SCT017 OVC031 07/05 A3003 RMK AO2 RAB14 SLP175 P0002 60002 T00720050 53014